Time;durP1;ratioP1;P1;durP2;ratioP2;P2;SDS_P1;SDS_P2;PMS_P1;PMS_P2;Temp;Humidity;BMP_temperature;BMP_pressure;BME280_temperature;BME280_humidity;BME280_pressure;Samples;Min_cycle;Max_cycle;Signal;HPM_P1;HPM_P2
2023/08/24 00:00:51;;;;;;;2.75;1.20;;;22.30;79.50;;;;;;5053764;28;20525;-30
2023/08/24 00:03:21;;;;;;;1.80;1.40;;;;;;;;;;5053414;28;20123;-31
2023/08/24 00:05:48;;;;;;;1.50;1.35;;;22.40;68.40;;;;;;5053439;28;20045;-33
2023/08/24 00:08:15;;;;;;;3.25;1.50;;;;;;;;;;5054000;28;20136;-33
2023/08/24 00:10:44;;;;;;;1.75;1.50;;;22.60;84.50;;;;;;5053548;28;20132;-31
2023/08/24 00:13:11;;;;;;;2.03;1.33;;;22.90;84.30;;;;;;5053306;28;20053;-31
2023/08/24 00:15:39;;;;;;;2.20;1.40;;;22.50;75.10;;;;;;5053810;28;20053;-31
2023/08/24 00:18:06;;;;;;;1.67;1.25;;;22.80;71.80;;;;;;5053677;28;20247;-31
2023/08/24 00:20:33;;;;;;;3.25;1.45;;;22.80;79.50;;;;;;5053676;28;20174;-31
2023/08/24 00:23:00;;;;;;;2.13;1.42;;;22.20;78.80;;;;;;5053103;28;20159;-31
2023/08/24 00:25:26;;;;;;;2.40;1.50;;;21.50;84.40;;;;;;5053543;28;20131;-30
2023/08/24 00:27:54;;;;;;;2.30;1.63;;;22.00;84.80;;;;;;5053327;28;20136;-32
2023/08/24 00:30:20;;;;;;;1.85;1.30;;;22.80;85.60;;;;;;5053544;28;20131;-31
2023/08/24 00:32:48;;;;;;;2.05;1.40;;;22.50;85.00;;;;;;5053098;28;20044;-30
2023/08/24 00:35:15;;;;;;;1.27;1.17;;;22.10;84.40;;;;;;5056996;28;20068;-32
2023/08/24 00:37:42;;;;;;;1.73;1.20;;;;;;;;;;5072911;28;20127;-33
2023/08/24 00:40:09;;;;;;;1.55;1.10;;;21.90;85.10;;;;;;5073039;28;20080;-31
2023/08/24 00:42:38;;;;;;;1.38;1.25;;;23.20;71.30;;;;;;5071545;28;20088;-32
2023/08/24 00:45:07;;;;;;;1.67;1.40;;;22.10;85.20;;;;;;5072956;28;20052;-31
2023/08/24 00:47:34;;;;;;;2.55;1.40;;;;;;;;;;5067583;28;20049;-31
2023/08/24 00:50:03;;;;;;;2.80;1.50;;;22.60;75.90;;;;;;5053051;28;20128;-31
2023/08/24 00:52:30;;;;;;;1.63;1.25;;;;;;;;;;5052830;28;20071;-31
2023/08/24 00:54:57;;;;;;;1.92;1.30;;;;;;;;;;5052959;28;20458;-32
2023/08/24 00:57:24;;;;;;;1.50;1.30;;;22.10;85.20;;;;;;5052873;28;20618;-32
2023/08/24 00:59:51;;;;;;;2.13;1.35;;;22.50;70.60;;;;;;5058592;28;20132;-31
2023/08/24 01:02:18;;;;;;;1.58;1.38;;;22.00;84.30;;;;;;5072616;28;20127;-31
2023/08/24 01:04:45;;;;;;;1.35;1.20;;;;;;;;;;5055691;28;20556;-32
2023/08/24 01:07:13;;;;;;;1.40;1.30;;;22.30;84.30;;;;;;5052774;28;20577;-31
2023/08/24 01:09:40;;;;;;;2.08;1.35;;;21.30;84.40;;;;;;5052700;28;20077;-32
2023/08/24 01:12:12;;;;;;;1.30;1.20;;;22.30;68.30;;;;;;5052050;28;20156;-33
2023/08/24 01:14:41;;;;;;;1.38;1.20;;;22.20;68.10;;;;;;5052535;28;20147;-33
2023/08/24 01:17:11;;;;;;;1.75;1.40;;;22.40;85.30;;;;;;5052661;28;20140;-31
2023/08/24 01:19:39;;;;;;;1.73;1.20;;;22.60;84.50;;;;;;5053376;28;20410;-30
2023/08/24 01:22:08;;;;;;;1.42;1.27;;;22.60;84.80;;;;;;5064614;28;20060;-32
2023/08/24 01:24:39;;;;;;;1.80;1.15;;;22.30;81.40;;;;;;5068950;28;20044;-31
2023/08/24 01:27:07;;;;;;;1.85;1.20;;;22.30;83.50;;;;;;5061352;28;20132;-31
2023/08/24 01:29:34;;;;;;;2.83;1.20;;;21.30;83.80;;;;;;5061138;28;20128;-31
2023/08/24 01:32:01;;;;;;;1.52;1.20;;;;;;;;;;5062284;28;20049;-34
2023/08/24 01:34:28;;;;;;;1.60;1.30;;;22.80;71.00;;;;;;5062269;28;20125;-31
2023/08/24 01:36:54;;;;;;;1.67;1.30;;;22.50;84.70;;;;;;5060298;28;20516;-32
2023/08/24 01:39:25;;;;;;;3.30;1.10;;;22.20;82.50;;;;;;5060727;28;20041;-30
2023/08/24 01:41:52;;;;;;;2.17;1.00;;;;;;;;;;5061588;28;20079;-34
2023/08/24 01:44:21;;;;;;;1.50;1.10;;;22.30;84.30;;;;;;5059721;28;20136;-31
2023/08/24 01:46:47;;;;;;;0.90;0.90;;;21.30;83.70;;;;;;5061920;28;20071;-30
2023/08/24 01:49:14;;;;;;;1.42;1.20;;;22.20;67.90;;;;;;5062070;28;20127;-33
2023/08/24 01:51:41;;;;;;;2.13;1.27;;;21.80;74.30;;;;;;5060469;28;20143;-31
2023/08/24 01:54:08;;;;;;;1.20;1.10;;;;;;;;;;5061477;28;20556;-34
2023/08/24 01:56:35;;;;;;;1.73;1.40;;;23.00;84.60;;;;;;5061786;28;20076;-30
2023/08/24 01:59:02;;;;;;;1.20;1.10;;;21.50;84.40;;;;;;5059924;28;20128;-30
2023/08/24 02:01:30;;;;;;;2.38;1.40;;;22.30;75.60;;;;;;5061212;28;20059;-32
2023/08/24 02:03:57;;;;;;;2.40;1.30;;;22.00;74.30;;;;;;5060559;28;20080;-32
2023/08/24 02:06:23;;;;;;;1.20;1.10;;;22.00;84.10;;;;;;5059972;28;20553;-31
2023/08/24 02:08:50;;;;;;;1.83;1.02;;;22.20;84.20;;;;;;5062994;28;20135;-32
2023/08/24 02:11:17;;;;;;;1.33;1.17;;;;;;;;;;5071285;28;20048;-32
2023/08/24 02:13:44;;;;;;;1.25;1.15;;;22.30;84.70;;;;;;5071198;28;20131;-31
2023/08/24 02:16:12;;;;;;;2.33;1.20;;;21.70;78.90;;;;;;5071799;28;20119;-31
2023/08/24 02:18:40;;;;;;;1.83;1.17;;;22.10;67.80;;;;;;5071543;28;20136;-31
2023/08/24 02:21:11;;;;;;;1.27;1.08;;;21.90;83.90;;;;;;5071215;28;20047;-31
2023/08/24 02:23:38;;;;;;;1.25;1.15;;;22.20;84.20;;;;;;5070053;28;20181;-31
2023/08/24 02:26:04;;;;;;;1.60;1.20;;;21.70;84.30;;;;;;5057227;28;20127;-36
2023/08/24 02:28:31;;;;;;;1.52;1.10;;;;;;;;;;5060832;28;20053;-32
2023/08/24 02:31:01;;;;;;;1.30;1.17;;;22.40;85.10;;;;;;5071407;28;20088;-37
2023/08/24 02:33:29;;;;;;;1.50;1.23;;;;;;;;;;5070572;28;20130;-37
2023/08/24 02:35:57;;;;;;;1.30;1.20;;;23.10;71.60;;;;;;5070705;28;20131;-36
2023/08/24 02:38:24;;;;;;;1.40;1.15;;;21.70;71.00;;;;;;5070372;28;20063;-36
2023/08/24 02:41:00;;;;;;;1.25;1.13;;;21.70;83.80;;;;;;5050484;28;20560;-39
2023/08/24 02:43:27;;;;;;;1.05;0.95;;;21.30;84.10;;;;;;5050815;28;20132;-39
2023/08/24 02:45:54;;;;;;;1.10;1.00;;;22.30;84.20;;;;;;5050969;28;20041;-37
2023/08/24 02:48:21;;;;;;;1.20;1.10;;;22.40;84.50;;;;;;5051062;28;20129;-40
2023/08/24 02:50:48;;;;;;;1.70;1.30;;;22.20;85.10;;;;;;5050791;28;20135;-39
2023/08/24 02:53:16;;;;;;;1.50;1.00;;;22.00;67.80;;;;;;5050473;28;20056;-36
2023/08/24 02:55:43;;;;;;;1.20;1.10;;;;;;;;;;5050790;28;20124;-37
2023/08/24 02:58:10;;;;;;;0.98;0.93;;;;;;;;;;5050862;28;20052;-36
2023/08/24 03:00:39;;;;;;;1.20;1.00;;;20.90;83.60;;;;;;5050812;28;20124;-38
2023/08/24 03:03:06;;;;;;;1.20;1.10;;;22.10;85.10;;;;;;5050328;28;20537;-40
2023/08/24 03:05:33;;;;;;;3.08;1.38;;;;;;;;;;5050466;28;20041;-33
2023/08/24 03:08:00;;;;;;;1.40;1.30;;;22.20;84.30;;;;;;5050613;28;20075;-36
2023/08/24 03:10:28;;;;;;;1.20;1.10;;;22.00;67.90;;;;;;5050553;28;20095;-34
2023/08/24 03:12:55;;;;;;;1.20;1.10;;;;;;;;;;5050381;28;20135;-33
2023/08/24 03:15:22;;;;;;;1.98;1.10;;;22.50;84.50;;;;;;5050512;28;20060;-40
2023/08/24 03:17:49;;;;;;;1.50;1.35;;;;;;;;;;5050328;28;20603;-33
2023/08/24 03:20:16;;;;;;;1.60;1.30;;;21.40;84.00;;;;;;5050244;28;20500;-39
2023/08/24 03:22:43;;;;;;;1.30;1.20;;;22.10;83.20;;;;;;5067764;28;20654;-39
2023/08/24 03:25:10;;;;;;;1.30;1.20;;;22.00;77.70;;;;;;5070180;28;20047;-36
2023/08/24 03:27:39;;;;;;;1.30;1.20;;;21.90;79.70;;;;;;5070295;28;20135;-39
2023/08/24 03:30:07;;;;;;;1.30;1.20;;;21.90;70.80;;;;;;5070647;28;20044;-36
2023/08/24 03:32:33;;;;;;;1.42;1.20;;;21.60;75.70;;;;;;5059056;28;20124;-36
2023/08/24 03:35:00;;;;;;;1.80;1.52;;;23.00;84.80;;;;;;5053649;28;20124;-39
2023/08/24 03:37:27;;;;;;;1.23;1.10;;;21.60;84.00;;;;;;5067306;28;20055;-39
2023/08/24 03:39:54;;;;;;;2.33;1.48;;;;;;;;;;5074128;28;20048;-36
2023/08/24 03:42:21;;;;;;;1.10;1.00;;;;;;;;;;5073702;28;20592;-37
2023/08/24 03:44:49;;;;;;;1.85;1.23;;;22.00;67.90;;;;;;5073951;28;20573;-37
2023/08/24 03:47:16;;;;;;;1.33;1.13;;;22.10;71.60;;;;;;5056623;28;20132;-37
2023/08/24 03:49:43;;;;;;;1.77;1.48;;;;;;;;;;5053961;28;20494;-34
2023/08/24 03:52:10;;;;;;;1.52;1.40;;;;;;;;;;5054272;28;20132;-36
2023/08/24 03:54:37;;;;;;;1.52;1.38;;;;;;;;;;5054203;28;20132;-37
2023/08/24 03:57:04;;;;;;;1.95;1.20;;;;;;;;;;5053990;28;20067;-38
2023/08/24 03:59:31;;;;;;;1.70;1.50;;;21.70;73.40;;;;;;5054032;28;20128;-36
2023/08/24 04:02:02;;;;;;;2.17;1.40;;;21.80;84.60;;;;;;5069204;28;20131;-40
2023/08/24 04:04:28;;;;;;;1.55;1.30;;;21.60;70.10;;;;;;5073615;28;20052;-36
2023/08/24 04:06:55;;;;;;;1.77;1.40;;;;;;;;;;5073448;28;20151;-36
2023/08/24 04:09:23;;;;;;;1.58;1.30;;;;;;;;;;5073984;28;20147;-35
2023/08/24 04:11:49;;;;;;;2.67;1.33;;;21.60;69.90;;;;;;5073564;28;20060;-37
2023/08/24 04:14:16;;;;;;;1.65;1.20;;;22.20;71.30;;;;;;5063753;28;20128;-40
2023/08/24 04:16:43;;;;;;;1.40;1.30;;;;;;;;;;5053593;28;20123;-34
2023/08/24 04:19:11;;;;;;;2.15;1.45;;;21.90;67.80;;;;;;5053582;28;20136;-38
2023/08/24 04:21:38;;;;;;;2.47;1.30;;;21.90;83.90;;;;;;5068043;28;20140;-37
2023/08/24 04:24:05;;;;;;;1.40;1.30;;;22.30;84.80;;;;;;5073489;28;20124;-35
2023/08/24 04:26:32;;;;;;;1.23;1.13;;;;;;;;;;5073360;28;20497;-34
2023/08/24 04:28:59;;;;;;;2.72;1.40;;;;;;;;;;5072350;28;20147;-33
2023/08/24 04:31:26;;;;;;;1.27;1.17;;;21.40;84.30;;;;;;5073084;28;20520;-38
2023/08/24 04:33:52;;;;;;;1.88;1.30;;;22.10;84.80;;;;;;5073271;28;20054;-39
2023/08/24 04:36:20;;;;;;;1.85;1.25;;;22.40;68.10;;;;;;5072864;28;20131;-36
2023/08/24 04:38:48;;;;;;;1.63;1.30;;;;;;;;;;5073448;28;20139;-34
2023/08/24 04:41:15;;;;;;;1.95;1.40;;;21.90;84.80;;;;;;5072295;28;20067;-37
2023/08/24 04:43:42;;;;;;;1.60;1.23;;;;;;;;;;5072601;28;20117;-36
2023/08/24 04:46:10;;;;;;;2.20;1.20;;;;;;;;;;5071969;28;20131;-36
2023/08/24 04:48:37;;;;;;;2.53;1.40;;;22.00;84.40;;;;;;5072954;28;20098;-39
2023/08/24 04:51:04;;;;;;;1.70;1.30;;;;;;;;;;5073056;28;20445;-36
2023/08/24 04:53:32;;;;;;;1.60;1.30;;;22.10;84.40;;;;;;5072858;28;20057;-36
2023/08/24 04:55:59;;;;;;;2.58;1.23;;;21.80;84.70;;;;;;5063647;28;20136;-38
2023/08/24 04:58:26;;;;;;;1.92;1.20;;;22.60;73.90;;;;;;5052684;28;20128;-37
2023/08/24 05:00:55;;;;;;;1.27;1.17;;;22.00;80.70;;;;;;5052627;28;20053;-38
2023/08/24 05:03:22;;;;;;;1.63;1.30;;;;;;;;;;5052343;28;20049;-35
2023/08/24 05:05:49;;;;;;;2.13;1.75;;;;;;;;;;5052763;28;20625;-38
2023/08/24 05:08:16;;;;;;;1.73;1.10;;;21.80;84.70;;;;;;5071950;28;20709;-39
2023/08/24 05:10:45;;;;;;;1.30;1.20;;;21.80;74.10;;;;;;5072608;28;20072;-37
2023/08/24 05:13:12;;;;;;;1.35;1.20;;;21.70;84.10;;;;;;5072365;28;20493;-39
2023/08/24 05:15:39;;;;;;;1.20;1.10;;;;;;;;;;5072851;28;20124;-35
2023/08/24 05:18:06;;;;;;;1.70;1.20;;;21.90;84.70;;;;;;5072300;28;20048;-39
2023/08/24 05:20:33;;;;;;;1.48;1.35;;;;;;;;;;5071846;28;20139;-37
2023/08/24 05:22:59;;;;;;;1.38;1.10;;;21.90;84.70;;;;;;5052260;28;20131;-35
2023/08/24 05:25:26;;;;;;;1.95;1.23;;;;;;;;;;5052558;28;20477;-38
2023/08/24 05:27:54;;;;;;;3.45;1.40;;;22.40;77.20;;;;;;5059878;28;20127;-38
2023/08/24 05:30:21;;;;;;;1.40;1.30;;;21.70;74.90;;;;;;5056759;28;20128;-36
2023/08/24 05:32:48;;;;;;;1.30;1.20;;;21.40;84.50;;;;;;5072123;28;20127;-40
2023/08/24 05:35:15;;;;;;;1.63;1.15;;;21.80;85.10;;;;;;5072234;28;20700;-38
2023/08/24 05:37:41;;;;;;;1.58;1.20;;;21.50;69.80;;;;;;5057200;28;20136;-34
2023/08/24 05:40:09;;;;;;;1.30;1.20;;;22.30;84.60;;;;;;5064196;28;20569;-37
2023/08/24 05:42:36;;;;;;;1.55;1.30;;;22.70;77.20;;;;;;5071502;28;20459;-36
2023/08/24 05:45:05;;;;;;;1.60;1.10;;;21.50;68.20;;;;;;5071872;28;20530;-39
2023/08/24 05:47:32;;;;;;;2.03;1.30;;;;;;;;;;5071514;28;20561;-36
2023/08/24 05:49:59;;;;;;;1.73;1.23;;;21.30;85.00;;;;;;5071845;28;20580;-40
2023/08/24 05:52:27;;;;;;;2.50;1.10;;;;;;;;;;5068878;28;20123;-34
2023/08/24 05:54:53;;;;;;;2.00;1.10;;;22.40;84.60;;;;;;5052011;28;20084;-39
2023/08/24 05:57:20;;;;;;;2.00;1.30;;;;;;;;;;5051859;28;20131;-34
2023/08/24 05:59:48;;;;;;;1.73;1.27;;;21.40;85.00;;;;;;5051981;28;20148;-38
2023/08/24 06:02:16;;;;;;;1.63;0.98;;;22.20;72.40;;;;;;5050987;28;20457;-37
2023/08/24 06:04:42;;;;;;;1.40;1.20;;;21.50;84.20;;;;;;5051597;28;20132;-36
2023/08/24 06:07:09;;;;;;;2.08;1.40;;;21.80;84.50;;;;;;5051765;28;20045;-38
2023/08/24 06:09:36;;;;;;;1.90;1.30;;;21.40;84.30;;;;;;5052707;28;20059;-39
2023/08/24 06:12:02;;;;;;;1.98;1.40;;;22.40;81.10;;;;;;5051355;28;20462;-37
2023/08/24 06:14:29;;;;;;;3.58;1.30;;;21.40;84.50;;;;;;5060642;28;20506;-39
2023/08/24 06:16:56;;;;;;;1.98;1.40;;;;;;;;;;5053435;28;20056;-37
2023/08/24 06:19:24;;;;;;;2.30;1.40;;;22.00;75.00;;;;;;5060637;28;20135;-38
2023/08/24 06:21:51;;;;;;;1.65;1.38;;;;;;;;;;5063651;28;20444;-39
2023/08/24 06:24:18;;;;;;;1.55;1.45;;;;;;;;;;5060470;28;20144;-36
2023/08/24 06:26:45;;;;;;;2.22;1.40;;;22.20;84.20;;;;;;5057283;28;20123;-36
2023/08/24 06:29:12;;;;;;;2.97;1.42;;;;;;;;;;5059223;28;20143;-35
2023/08/24 06:31:39;;;;;;;2.22;1.35;;;21.50;72.80;;;;;;5061904;28;20119;-36
2023/08/24 06:34:06;;;;;;;2.63;1.40;;;;;;;;;;5060427;28;20475;-36
2023/08/24 06:36:34;;;;;;;2.50;1.40;;;21.70;67.80;;;;;;5057733;28;20073;-35
2023/08/24 06:39:04;;;;;;;1.50;1.20;;;;;;;;;;5057111;28;20076;-31
2023/08/24 06:41:31;;;;;;;3.53;1.50;;;;;;;;;;5059790;28;20132;-32
2023/08/24 06:43:58;;;;;;;1.40;1.30;;;;;;;;;;5058335;28;20124;-33
2023/08/24 06:46:25;;;;;;;2.08;1.13;;;;;;;;;;5060148;28;20048;-33
2023/08/24 06:48:53;;;;;;;1.95;1.27;;;;;;;;;;5059690;28;20127;-31
2023/08/24 06:51:20;;;;;;;2.55;1.40;;;;;;;;;;5065002;28;20131;-33
2023/08/24 06:53:48;;;;;;;1.77;1.45;;;21.70;67.90;;;;;;5070875;28;20131;-30
2023/08/24 06:56:15;;;;;;;1.73;1.25;;;22.50;85.70;;;;;;5068677;28;20072;-31
2023/08/24 06:58:42;;;;;;;3.63;1.40;;;;;;;;;;5056617;28;20111;-31
2023/08/24 07:01:09;;;;;;;3.15;1.40;;;22.60;85.40;;;;;;5050861;28;20056;-30
2023/08/24 07:03:36;;;;;;;1.38;1.10;;;;;;;;;;5050665;28;20110;-34
2023/08/24 07:06:04;;;;;;;1.80;1.20;;;22.10;85.70;;;;;;5050885;28;20128;-31
2023/08/24 07:08:31;;;;;;;2.38;1.60;;;21.80;84.60;;;;;;5049857;28;20059;-31
2023/08/24 07:10:59;;;;;;;1.60;1.15;;;21.70;68.00;;;;;;5070330;28;20131;-31
2023/08/24 07:13:26;;;;;;;1.73;1.10;;;;;;;;;;5070590;28;20136;-33
2023/08/24 07:15:53;;;;;;;3.05;1.40;;;22.30;85.70;;;;;;5058393;28;20087;-31
2023/08/24 07:18:20;;;;;;;1.90;1.23;;;;;;;;;;5050845;28;20135;-31
2023/08/24 07:20:47;;;;;;;1.20;1.10;;;21.80;71.80;;;;;;5051937;28;20131;-31
2023/08/24 07:23:13;;;;;;;3.55;1.20;;;21.80;84.60;;;;;;5056059;28;20136;-30
2023/08/24 07:25:40;;;;;;;2.25;1.20;;;21.80;85.00;;;;;;5055006;28;20131;-30
2023/08/24 07:28:09;;;;;;;1.80;1.27;;;22.60;85.40;;;;;;5059590;28;20052;-32
2023/08/24 07:30:36;;;;;;;1.60;1.30;;;22.00;85.50;;;;;;5050558;28;20495;-31
2023/08/24 07:33:03;;;;;;;2.95;1.20;;;21.70;77.20;;;;;;5058915;28;20512;-31
2023/08/24 07:35:30;;;;;;;1.92;1.15;;;21.90;75.30;;;;;;5070820;28;20055;-32
2023/08/24 07:37:57;;;;;;;1.60;1.30;;;;;;;;;;5070314;28;20458;-31
2023/08/24 07:40:25;;;;;;;1.20;1.10;;;22.10;84.90;;;;;;5069903;28;20127;-31
2023/08/24 07:42:56;;;;;;;1.40;1.13;;;22.40;86.00;;;;;;5070229;28;20409;-31
2023/08/24 07:45:24;;;;;;;3.38;1.30;;;21.80;68.30;;;;;;5070314;28;20299;-30
2023/08/24 07:47:51;;;;;;;3.42;1.35;;;21.80;85.70;;;;;;5070202;28;20156;-31
2023/08/24 07:50:17;;;;;;;2.55;1.30;;;21.40;73.40;;;;;;5070352;28;20076;-33
2023/08/24 07:52:44;;;;;;;1.52;1.27;;;22.80;85.30;;;;;;5070223;28;20048;-31
2023/08/24 07:55:11;;;;;;;1.92;1.38;;;22.20;85.00;;;;;;5064469;28;20063;-31
2023/08/24 07:57:38;;;;;;;3.30;1.23;;;22.40;81.80;;;;;;5069054;28;20480;-30
2023/08/24 08:00:06;;;;;;;3.15;1.35;;;21.20;85.50;;;;;;5070479;28;20087;-31
2023/08/24 08:02:34;;;;;;;1.52;1.10;;;22.60;74.50;;;;;;5069900;28;20133;-31
2023/08/24 08:05:00;;;;;;;3.10;1.20;;;20.70;75.70;;;;;;5070327;28;20144;-31
2023/08/24 08:07:27;;;;;;;2.22;1.30;;;22.80;85.50;;;;;;5069992;28;20047;-31
2023/08/24 08:09:54;;;;;;;1.42;1.20;;;21.10;73.30;;;;;;5064155;28;20072;-31
2023/08/24 08:12:20;;;;;;;2.03;1.30;;;22.20;85.50;;;;;;5060436;28;20135;-30
2023/08/24 08:14:48;;;;;;;1.80;1.30;;;;;;;;;;5064888;28;20123;-35
2023/08/24 08:17:14;;;;;;;2.80;1.13;;;22.70;78.50;;;;;;5052386;28;20123;-39
2023/08/24 08:19:42;;;;;;;1.70;1.20;;;21.70;84.90;;;;;;5057783;28;20055;-39
2023/08/24 08:22:09;;;;;;;2.80;1.17;;;21.40;77.90;;;;;;5066121;28;20147;-31
2023/08/24 08:24:36;;;;;;;1.70;1.23;;;21.50;79.70;;;;;;5063804;28;20080;-31
2023/08/24 08:27:03;;;;;;;2.03;1.30;;;;;;;;;;5065568;28;20206;-31
2023/08/24 08:29:30;;;;;;;1.95;1.20;;;;;;;;;;5073340;28;20076;-32
2023/08/24 08:31:56;;;;;;;1.65;1.20;;;22.80;71.20;;;;;;5073473;28;20080;-32
2023/08/24 08:34:23;;;;;;;1.30;1.10;;;21.70;85.10;;;;;;5073305;28;20135;-31
2023/08/24 08:36:51;;;;;;;2.85;1.45;;;21.50;85.50;;;;;;5072874;28;20119;-30
2023/08/24 08:39:18;;;;;;;1.48;1.10;;;21.20;85.20;;;;;;5073306;28;20135;-31
2023/08/24 08:41:45;;;;;;;2.05;1.13;;;21.80;79.90;;;;;;5066425;28;20052;-30
2023/08/24 08:44:13;;;;;;;1.95;1.10;;;21.90;68.80;;;;;;5062156;28;20527;-32
2023/08/24 08:46:41;;;;;;;1.77;1.05;;;;;;;;;;5064321;28;20510;-30
2023/08/24 08:49:08;;;;;;;3.15;1.13;;;;;;;;;;5066420;28;20128;-31
2023/08/24 08:51:36;;;;;;;1.48;1.15;;;21.60;85.30;;;;;;5052215;28;20079;-31
2023/08/24 08:54:05;;;;;;;2.25;1.30;;;21.90;68.90;;;;;;5056948;28;20479;-30
2023/08/24 08:56:32;;;;;;;2.63;1.08;;;;;;;;;;5061781;28;20053;-33
2023/08/24 08:59:00;;;;;;;2.67;1.38;;;22.20;73.90;;;;;;5059776;28;20132;-31
2023/08/24 09:01:27;;;;;;;2.33;1.50;;;;;;;;;;5062586;28;20055;-31
2023/08/24 09:03:54;;;;;;;1.88;1.30;;;22.40;71.40;;;;;;5053102;28;20117;-32
2023/08/24 09:06:21;;;;;;;3.53;1.30;;;22.10;85.70;;;;;;5052152;28;20072;-31
2023/08/24 09:08:48;;;;;;;1.20;1.10;;;;;;;;;;5052951;28;20136;-32
2023/08/24 09:11:18;;;;;;;2.72;1.73;;;22.00;69.00;;;;;;5062802;28;20045;-30
2023/08/24 09:13:45;;;;;;;2.50;1.33;;;22.20;85.80;;;;;;5052448;28;20475;-31
2023/08/24 09:16:15;;;;;;;1.95;1.20;;;22.90;76.20;;;;;;5053753;28;20136;-31
2023/08/24 09:18:44;;;;;;;2.15;1.30;;;22.00;68.90;;;;;;5052794;28;20064;-32
2023/08/24 09:21:11;;;;;;;1.75;1.20;;;;;;;;;;5057386;28;20048;-30
2023/08/24 09:23:38;;;;;;;2.10;1.27;;;22.00;75.00;;;;;;5072388;28;20127;-31
2023/08/24 09:26:05;;;;;;;3.55;1.23;;;;;;;;;;5072657;28;20127;-32
2023/08/24 09:28:35;;;;;;;2.40;1.20;;;22.80;72.20;;;;;;5072642;28;20055;-32
2023/08/24 09:31:02;;;;;;;2.58;1.42;;;21.90;79.30;;;;;;5072020;28;20060;-32
2023/08/24 09:33:30;;;;;;;2.92;1.20;;;21.60;73.20;;;;;;5055882;28;20422;-31
2023/08/24 09:36:01;;;;;;;2.08;1.10;;;21.50;80.40;;;;;;5053249;28;20049;-30
2023/08/24 09:38:28;;;;;;;3.25;1.60;;;21.70;84.90;;;;;;5072238;28;20094;-31
2023/08/24 09:40:55;;;;;;;2.25;1.30;;;;;;;;;;5065711;28;20564;-34
2023/08/24 09:43:22;;;;;;;3.72;1.35;;;22.30;68.90;;;;;;5056248;28;20135;-30
2023/08/24 09:45:51;;;;;;;2.60;1.20;;;22.10;68.80;;;;;;5056961;28;20131;-34
2023/08/24 09:48:18;;;;;;;3.95;1.42;;;22.20;85.80;;;;;;5064353;28;20532;-31
2023/08/24 09:50:45;;;;;;;1.95;1.13;;;22.10;68.70;;;;;;5058867;28;20375;-30
2023/08/24 09:53:12;;;;;;;1.85;1.20;;;22.70;86.00;;;;;;5051081;28;20819;-31
2023/08/24 09:55:39;;;;;;;1.95;1.20;;;21.90;85.30;;;;;;5051924;28;20738;-30
2023/08/24 09:58:06;;;;;;;2.13;1.23;;;22.40;83.60;;;;;;5058301;28;20048;-31
2023/08/24 10:00:34;;;;;;;2.03;1.20;;;23.10;85.90;;;;;;5071790;28;20079;-31
2023/08/24 10:03:03;;;;;;;2.00;1.40;;;22.70;85.80;;;;;;5071716;28;20049;-39
2023/08/24 10:05:30;;;;;;;3.00;1.45;;;22.20;85.50;;;;;;5070942;28;20048;-37
2023/08/24 10:07:57;;;;;;;3.72;1.40;;;22.60;86.00;;;;;;5071513;28;20047;-38
2023/08/24 10:10:26;;;;;;;2.85;1.50;;;22.10;79.10;;;;;;5070664;28;20048;-36
2023/08/24 10:12:53;;;;;;;2.50;1.45;;;21.30;84.70;;;;;;5061270;28;20118;-34
2023/08/24 10:15:22;;;;;;;2.28;1.67;;;;;;;;;;5054262;28;20129;-33
2023/08/24 10:17:49;;;;;;;3.20;1.50;;;22.20;74.70;;;;;;5051193;28;20502;-39
2023/08/24 10:20:17;;;;;;;2.33;1.58;;;22.10;68.70;;;;;;5051302;28;20129;-33
2023/08/24 10:22:43;;;;;;;3.17;1.40;;;23.00;85.70;;;;;;5054543;28;20132;-35
2023/08/24 10:25:10;;;;;;;3.65;1.70;;;22.40;76.50;;;;;;5051682;28;20136;-37
2023/08/24 10:27:37;;;;;;;4.15;1.60;;;22.10;85.00;;;;;;5051227;28;20395;-38
2023/08/24 10:30:04;;;;;;;3.10;1.60;;;22.10;68.90;;;;;;5051269;28;20132;-35
2023/08/24 10:32:31;;;;;;;1.95;1.35;;;22.40;85.30;;;;;;5050814;28;20063;-36
2023/08/24 10:34:57;;;;;;;3.42;1.52;;;23.30;85.70;;;;;;5051447;28;20128;-37
2023/08/24 10:37:29;;;;;;;2.17;1.48;;;22.10;68.80;;;;;;5064111;28;20132;-32
2023/08/24 10:39:55;;;;;;;2.90;1.40;;;21.40;72.40;;;;;;5053216;28;20136;-35
2023/08/24 10:42:22;;;;;;;3.50;1.50;;;22.10;85.60;;;;;;5050850;28;20131;-39
2023/08/24 10:44:50;;;;;;;2.65;1.40;;;;;;;;;;5050058;28;20135;-32
2023/08/24 10:47:17;;;;;;;1.95;1.30;;;;;;;;;;5053627;28;20442;-36
2023/08/24 10:49:44;;;;;;;2.53;1.30;;;24.20;69.90;;;;;;5061418;28;20136;-38
2023/08/24 10:52:21;;;;;;;2.83;1.30;;;22.00;70.80;;;;;;5053240;28;20128;-36
2023/08/24 10:54:49;;;;;;;2.00;1.60;;;22.10;77.00;;;;;;5061156;28;20527;-38
2023/08/24 10:57:20;;;;;;;2.47;1.75;;;22.10;68.90;;;;;;5071031;28;20048;-38
2023/08/24 10:59:47;;;;;;;2.65;1.45;;;21.50;84.80;;;;;;5070577;28;20513;-37
2023/08/24 11:02:20;;;;;;;2.25;1.30;;;21.10;84.50;;;;;;5070150;28;20143;-38
2023/08/24 11:05:15;;;;;;;4.32;1.42;;;22.20;68.90;;;;;;5070700;28;20424;-33
2023/08/24 11:07:49;;;;;;;3.23;1.60;;;23.00;86.90;;;;;;5070575;28;20128;-37
2023/08/24 11:10:18;;;;;;;2.28;1.35;;;22.10;68.90;;;;;;5070644;28;20048;-38
2023/08/24 11:13:07;;;;;;;3.42;1.58;;;22.60;86.30;;;;;;5068646;28;20080;-35
2023/08/24 11:15:34;;;;;;;2.65;1.30;;;22.20;69.10;;;;;;5070538;28;20120;-34
2023/08/24 11:18:20;;;;;;;2.53;1.40;;;23.00;85.70;;;;;;5070528;28;20132;-37
2023/08/24 11:20:47;;;;;;;3.65;1.48;;;21.80;85.60;;;;;;5070360;28;20052;-37
2023/08/24 11:23:15;;;;;;;5.65;2.08;;;21.90;77.90;;;;;;5070303;28;20465;-36
2023/08/24 11:25:44;;;;;;;4.28;1.80;;;22.40;83.80;;;;;;5070544;28;20139;-39
2023/08/24 11:28:10;;;;;;;5.80;1.92;;;22.00;85.40;;;;;;5065102;28;20119;-36
2023/08/24 11:30:37;;;;;;;5.53;2.10;;;22.20;69.40;;;;;;5048745;28;20480;-34
2023/08/24 11:33:04;;;;;;;5.53;2.20;;;22.30;69.50;;;;;;5052727;28;20668;-37
2023/08/24 11:35:35;;;;;;;5.20;2.20;;;22.10;85.40;;;;;;5065026;28;20459;-38
2023/08/24 11:38:03;;;;;;;4.78;2.13;;;;;;;;;;5070073;28;20131;-36
2023/08/24 11:40:29;;;;;;;3.90;1.90;;;22.50;76.80;;;;;;5067688;28;20060;-35
2023/08/24 11:42:57;;;;;;;4.63;2.05;;;22.30;69.60;;;;;;5058906;28;20080;-35
2023/08/24 11:45:25;;;;;;;4.82;2.13;;;;;;;;;;5070271;28;20161;-34
2023/08/24 11:47:51;;;;;;;4.43;2.20;;;23.20;87.00;;;;;;5055217;28;20055;-38
2023/08/24 11:50:18;;;;;;;5.10;2.30;;;22.20;80.60;;;;;;5054589;28;20602;-36
2023/08/24 11:52:45;;;;;;;3.10;1.77;;;23.00;71.30;;;;;;5069807;28;20131;-36
2023/08/24 11:55:12;;;;;;;4.00;2.10;;;23.50;86.80;;;;;;5072264;28;20049;-39
2023/08/24 11:57:39;;;;;;;4.35;2.20;;;;;;;;;;5073425;28;20524;-35
2023/08/24 12:00:09;;;;;;;3.22;1.90;;;23.00;87.10;;;;;;5074220;28;20131;-34
2023/08/24 12:02:35;;;;;;;3.90;1.90;;;22.20;74.20;;;;;;5073676;28;20471;-36
2023/08/24 12:05:02;;;;;;;4.45;2.03;;;23.10;86.20;;;;;;5073971;28;20136;-36
2023/08/24 12:07:29;;;;;;;4.15;2.00;;;;;;;;;;5073316;28;20135;-34
2023/08/24 12:09:56;;;;;;;4.20;1.98;;;22.50;77.70;;;;;;5073651;28;20135;-38
2023/08/24 12:12:24;;;;;;;3.17;2.08;;;;;;;;;;5069512;28;20468;-35
2023/08/24 12:14:50;;;;;;;4.22;2.10;;;23.20;86.50;;;;;;5053747;28;20053;-35
2023/08/24 12:17:19;;;;;;;4.30;2.08;;;22.50;70.00;;;;;;5053836;28;20145;-34
2023/08/24 12:19:46;;;;;;;3.00;1.90;;;22.50;70.00;;;;;;5053553;28;20056;-35
2023/08/24 12:22:16;;;;;;;3.70;1.60;;;22.50;70.10;;;;;;5067074;28;20119;-38
2023/08/24 12:24:45;;;;;;;2.65;1.80;;;22.60;70.10;;;;;;5073263;28;20105;-35
2023/08/24 12:27:18;;;;;;;3.22;1.85;;;22.50;70.10;;;;;;5072444;28;20493;-33
2023/08/24 12:29:45;;;;;;;5.75;2.10;;;21.70;75.00;;;;;;5073777;28;20124;-34
2023/08/24 12:32:13;;;;;;;3.22;1.83;;;;;;;;;;5073214;28;20492;-37
2023/08/24 12:34:41;;;;;;;2.85;1.70;;;23.00;87.40;;;;;;5062515;28;20078;-35
2023/08/24 12:37:07;;;;;;;3.05;1.85;;;22.90;87.30;;;;;;5069494;28;20128;-38
2023/08/24 12:39:36;;;;;;;3.47;1.50;;;22.50;70.20;;;;;;5073213;28;20119;-35
2023/08/24 12:42:03;;;;;;;2.75;1.83;;;;;;;;;;5072751;28;20140;-33
2023/08/24 12:44:30;;;;;;;3.10;2.10;;;;;;;;;;5061156;28;20578;-36
2023/08/24 12:46:57;;;;;;;2.50;1.80;;;22.60;87.30;;;;;;5064205;28;20131;-34
2023/08/24 12:49:23;;;;;;;3.08;1.90;;;22.50;86.50;;;;;;5061770;28;20041;-39
2023/08/24 12:51:51;;;;;;;3.67;2.10;;;22.50;70.40;;;;;;5053147;28;20140;-34
2023/08/24 12:54:19;;;;;;;3.83;1.60;;;;;;;;;;5052960;28;20128;-33
2023/08/24 12:56:46;;;;;;;3.05;1.73;;;;;;;;;;5055715;28;20048;-37
2023/08/24 12:59:13;;;;;;;2.55;1.80;;;;;;;;;;5063086;28;20136;-37
2023/08/24 13:01:39;;;;;;;2.85;1.88;;;22.20;73.50;;;;;;5061600;28;20041;-38
2023/08/24 13:04:06;;;;;;;3.00;1.80;;;23.10;87.70;;;;;;5062605;28;20132;-36
2023/08/24 13:06:34;;;;;;;2.67;1.85;;;22.50;70.50;;;;;;5051332;28;20206;-34
2023/08/24 13:09:03;;;;;;;5.40;2.10;;;22.30;84.70;;;;;;5052853;28;20052;-38
2023/08/24 13:11:29;;;;;;;3.95;1.73;;;22.40;81.80;;;;;;5052781;28;20088;-34
2023/08/24 13:13:56;;;;;;;3.25;2.00;;;22.70;87.60;;;;;;5064212;28;20124;-38